Time;durP1;ratioP1;P1;durP2;ratioP2;P2;SDS_P1;SDS_P2;PMS_P1;PMS_P2;Temp;Humidity;BMP_temperature;BMP_pressure;BME280_temperature;BME280_humidity;BME280_pressure;Samples;Min_cycle;Max_cycle;Signal;HPM_P1;HPM_P2
2023/01/22 00:01:29;;;;;;;12.27;8.90;;;;;;;;;;4991977;28;20441;-55
2023/01/22 00:03:55;;;;;;;9.37;8.30;;;;;;;;;;4993905;28;20213;-54
2023/01/22 00:06:22;;;;;;;10.23;8.80;;;;;;;;;;4993890;28;20465;-54
2023/01/22 00:08:48;;;;;;;11.57;9.43;;;;;;;;;;4994076;28;20535;-55
2023/01/22 00:11:15;;;;;;;11.67;8.67;;;;;;;;;;4993879;28;20476;-55
2023/01/22 00:13:41;;;;;;;9.93;7.73;;;;;;;;;;4993953;28;20437;-55
2023/01/22 00:16:07;;;;;;;11.60;8.43;;;;;;;;;;4993935;28;20422;-57
2023/01/22 00:18:35;;;;;;;10.37;8.90;;;;;;;;;;4993795;28;20483;-55
2023/01/22 00:21:01;;;;;;;10.00;8.27;;;;;;;;;;4994027;28;20995;-55
2023/01/22 00:23:27;;;;;;;9.00;8.10;;;;;;;;;;4994115;28;20453;-56
2023/01/22 00:25:59;;;;;;;9.87;8.30;;;;;;;;;;4993830;28;20441;-53
2023/01/22 00:28:25;;;;;;;10.20;8.70;;;;;;;;;;4993731;28;21009;-54
2023/01/22 00:30:56;;;;;;;9.77;8.77;;;;;;;;;;4993855;28;20437;-54
2023/01/22 00:33:22;;;;;;;10.23;8.27;;;;;;;;;;4993810;28;20214;-54
2023/01/22 00:35:49;;;;;;;8.47;7.67;;;;;;;;;;4993661;28;20437;-54
2023/01/22 00:38:15;;;;;;;11.60;8.57;;;;;;;;;;4993400;28;20233;-54
2023/01/22 00:40:41;;;;;;;11.37;9.50;;;;;;;;;;4992471;28;20489;-54
2023/01/22 00:43:07;;;;;;;9.73;8.27;;;;;;;;;;4993140;28;20206;-54
2023/01/22 00:45:33;;;;;;;9.30;7.70;;;;;;;;;;4993716;28;20240;-54
2023/01/22 00:47:59;;;;;;;9.40;8.50;;;;;;;;;;4993422;28;20313;-54
2023/01/22 00:50:25;;;;;;;10.60;8.57;;;;;;;;;;4993428;28;20532;-54
2023/01/22 00:52:52;;;;;;;9.27;8.27;;;;;;;;;;4993276;28;20206;-55
2023/01/22 00:55:18;;;;;;;8.83;7.90;;;;;;;;;;4993176;28;20213;-54
2023/01/22 00:57:44;;;;;;;9.93;8.33;;;;;;;;;;4993633;28;20541;-54
2023/01/22 01:00:13;;;;;;;9.17;8.27;;;;;;;;;;4993167;28;20473;-54
2023/01/22 01:05:25;;;;;;;8.97;8.07;;;;;;;;;;4993176;28;20428;-54
2023/01/22 01:07:52;;;;;;;10.70;8.83;;;;;;;;;;4992939;28;20985;-54
2023/01/22 01:10:18;;;;;;;9.93;8.43;;;;;;;;;;4992991;28;20445;-54
2023/01/22 01:12:44;;;;;;;10.07;8.80;;;;;;;;;;4993106;28;20529;-54
2023/01/22 01:15:11;;;;;;;9.77;8.73;;;;;;;;;;4992862;28;20569;-52
2023/01/22 01:17:37;;;;;;;11.10;9.57;;;;;;;;;;4993022;28;20194;-53
2023/01/22 01:20:03;;;;;;;12.17;8.90;;;;;;;;;;4992613;28;20859;-53
2023/01/22 01:22:29;;;;;;;9.43;8.40;;;;;;;;;;4993219;28;20198;-53
2023/01/22 01:24:56;;;;;;;9.47;8.47;;;;;;;;;;4992664;28;21017;-54
2023/01/22 01:27:22;;;;;;;11.40;9.13;;;;;;;;;;4992710;28;20253;-54
2023/01/22 01:29:48;;;;;;;12.03;9.37;;;;;;;;;;4992602;28;20541;-54
2023/01/22 01:32:14;;;;;;;10.73;8.70;;;;;;;;;;4992704;28;20278;-54
2023/01/22 01:34:40;;;;;;;12.77;8.80;;;;;;;;;;4992694;28;20611;-54
2023/01/22 01:37:06;;;;;;;10.53;9.10;;;;;;;;;;4992442;28;20224;-54
2023/01/22 01:39:32;;;;;;;10.53;8.27;;;;;;;;;;4991866;28;20656;-54
2023/01/22 01:41:59;;;;;;;9.67;8.77;;;;;;;;;;4992187;28;20217;-54
2023/01/22 01:44:26;;;;;;;12.37;8.47;;;;;;;;;;4992050;28;20246;-54
2023/01/22 01:46:53;;;;;;;10.27;9.03;;;;;;;;;;4992161;28;20883;-54
2023/01/22 01:49:22;;;;;;;9.80;8.80;;;;;;;;;;4992237;28;21249;-55
2023/01/22 01:51:48;;;;;;;9.77;8.57;;;;;;;;;;4991941;28;20437;-53
2023/01/22 01:54:14;;;;;;;11.97;9.97;;;;;;;;;;4992051;28;20449;-53
2023/01/22 01:56:43;;;;;;;10.37;8.63;;;;;;;;;;4992252;28;20457;-54
2023/01/22 01:59:12;;;;;;;12.03;8.53;;;;;;;;;;4992193;28;20930;-53
2023/01/22 02:01:39;;;;;;;11.13;8.70;;;;;;;;;;4992300;28;20512;-53
2023/01/22 02:04:05;;;;;;;9.53;8.53;;;;;;;;;;4992034;28;21074;-53
2023/01/22 02:06:31;;;;;;;11.40;9.90;;;;;;;;;;4991473;28;20924;-53
2023/01/22 02:08:59;;;;;;;12.90;9.00;;;;;;;;;;4992005;28;20519;-53
2023/01/22 02:11:26;;;;;;;9.93;8.47;;;;;;;;;;4992087;28;20237;-54
2023/01/22 02:13:54;;;;;;;9.77;8.50;;;;;;;;;;4992266;28;20449;-54
2023/01/22 02:16:22;;;;;;;10.37;9.23;;;;;;;;;;4991848;28;20441;-53
2023/01/22 02:18:48;;;;;;;10.23;8.83;;;;;;;;;;4991950;28;20441;-53
2023/01/22 02:21:32;;;;;;;10.73;8.53;;;;;;;;;;4992093;28;20429;-54
2023/01/22 02:23:59;;;;;;;9.83;8.80;;;;;;;;;;4991924;28;20425;-54
2023/01/22 02:26:25;;;;;;;12.37;9.73;;;;;;;;;;4991959;28;20451;-53
2023/01/22 02:28:51;;;;;;;10.10;8.63;;;;;;;;;;4991752;28;20472;-53
2023/01/22 02:31:17;;;;;;;10.40;9.10;;;;;;;;;;4991636;28;20441;-53
2023/01/22 02:33:43;;;;;;;10.80;9.57;;;;;;;;;;4992105;28;20249;-54
2023/01/22 02:36:09;;;;;;;10.43;8.70;;;;;;;;;;4991846;28;20293;-54
2023/01/22 02:38:37;;;;;;;11.23;9.33;;;;;;;;;;4991959;28;20277;-54
2023/01/22 02:41:05;;;;;;;9.47;8.40;;;;;;;;;;4991704;28;20540;-55
2023/01/22 02:43:31;;;;;;;10.63;9.57;;;;;;;;;;4991709;28;20484;-54
2023/01/22 02:45:57;;;;;;;9.47;8.47;;;;;;;;;;4991817;28;20430;-54
2023/01/22 02:48:23;;;;;;;10.33;9.20;;;;;;;;;;4991503;28;20476;-55
2023/01/22 02:50:49;;;;;;;9.87;8.80;;;;;;;;;;4991722;28;20198;-54
2023/01/22 02:53:15;;;;;;;11.20;8.50;;;;;;;;;;4991624;28;20500;-54
2023/01/22 02:55:43;;;;;;;10.67;9.23;;;;;;;;;;4991756;28;20285;-55
2023/01/22 02:58:11;;;;;;;8.50;7.60;;;;;;;;;;4991518;28;20198;-54
2023/01/22 03:00:37;;;;;;;16.17;9.67;;;;;;;;;;4991703;28;20441;-54
2023/01/22 03:03:06;;;;;;;10.57;9.30;;;;;;;;;;4992356;28;20958;-54
2023/01/22 03:05:32;;;;;;;10.73;9.63;;;;;;;;;;4995369;28;20444;-54
2023/01/22 03:07:58;;;;;;;10.83;9.33;;;;;;;;;;4995412;28;20481;-54
2023/01/22 03:10:24;;;;;;;9.67;8.50;;;;;;;;;;4995214;28;20440;-54
2023/01/22 03:21:15;;;;;;;11.53;9.13;;;;;;;;;;4995571;28;20946;-54
2023/01/22 03:23:42;;;;;;;10.63;9.27;;;;;;;;;;4995849;28;20441;-54
2023/01/22 03:26:08;;;;;;;10.53;9.47;;;;;;;;;;4995323;28;20448;-55
2023/01/22 03:28:34;;;;;;;11.07;9.37;;;;;;;;;;4995363;28;20986;-53
2023/01/22 03:31:01;;;;;;;11.40;9.40;;;;;;;;;;4995415;28;20473;-54
2023/01/22 03:33:27;;;;;;;10.33;9.10;;;;;;;;;;4995377;28;20369;-54
2023/01/22 03:35:53;;;;;;;11.50;9.83;;;;;;;;;;4995316;28;20796;-54
2023/01/22 03:38:19;;;;;;;11.03;9.50;;;;;;;;;;4995159;28;20277;-54
2023/01/22 03:40:45;;;;;;;12.03;9.77;;;;;;;;;;4995274;28;20579;-54
2023/01/22 03:43:11;;;;;;;10.67;9.33;;;;;;;;;;4995341;28;20902;-54
2023/01/22 03:45:38;;;;;;;13.67;11.10;;;;;;;;;;4995396;28;20453;-54
2023/01/22 03:48:06;;;;;;;10.07;9.03;;;;;;;;;;4995084;28;20487;-54
2023/01/22 03:50:31;;;;;;;13.77;10.33;;;;;;;;;;4993309;28;20207;-54
2023/01/22 03:52:57;;;;;;;11.43;9.53;;;;;;;;;;4995089;28;20927;-54
2023/01/22 03:55:24;;;;;;;11.80;9.63;;;;;;;;;;4994832;28;20206;-54
2023/01/22 03:57:50;;;;;;;11.83;10.37;;;;;;;;;;4994969;28;20273;-54
2023/01/22 04:00:16;;;;;;;11.07;9.87;;;;;;;;;;4994777;28;20477;-55
2023/01/22 04:02:42;;;;;;;11.40;10.23;;;;;;;;;;4995017;28;20578;-54
2023/01/22 04:05:10;;;;;;;10.70;9.70;;;;;;;;;;4994878;28;20437;-54
2023/01/22 04:07:36;;;;;;;11.37;9.83;;;;;;;;;;4994661;28;20254;-54
2023/01/22 04:10:02;;;;;;;11.00;9.77;;;;;;;;;;4994635;28;20512;-55
2023/01/22 04:12:28;;;;;;;11.50;9.47;;;;;;;;;;4994688;28;20202;-54
2023/01/22 04:14:54;;;;;;;12.93;9.83;;;;;;;;;;4994201;28;20214;-53
2023/01/22 04:17:20;;;;;;;11.53;10.30;;;;;;;;;;4994695;28;20281;-54
2023/01/22 04:19:46;;;;;;;10.23;9.07;;;;;;;;;;4994622;28;20611;-56
2023/01/22 04:22:13;;;;;;;12.20;9.73;;;;;;;;;;4994493;28;20206;-55
2023/01/22 04:24:39;;;;;;;12.53;9.17;;;;;;;;;;4994337;28;20218;-54
2023/01/22 04:27:05;;;;;;;11.37;10.27;;;;;;;;;;4994338;28;20437;-54
2023/01/22 04:29:31;;;;;;;13.03;10.37;;;;;;;;;;4994099;28;20234;-54
2023/01/22 04:31:57;;;;;;;11.43;10.10;;;;;;;;;;4994263;28;20198;-54
2023/01/22 04:34:23;;;;;;;11.63;10.10;;;;;;;;;;4994140;28;20564;-54
2023/01/22 04:36:49;;;;;;;12.40;10.17;;;;;;;;;;4994154;28;20285;-54
2023/01/22 04:39:16;;;;;;;11.70;10.13;;;;;;;;;;4994011;28;20856;-54
2023/01/22 04:41:42;;;;;;;10.27;9.27;;;;;;;;;;4992110;28;20461;-54
2023/01/22 04:44:08;;;;;;;10.77;8.80;;;;;;;;;;4993768;28;20512;-54
2023/01/22 04:46:34;;;;;;;11.50;9.23;;;;;;;;;;4993913;28;20214;-55
2023/01/22 04:49:00;;;;;;;10.47;9.13;;;;;;;;;;4993947;28;20249;-53
2023/01/22 04:51:26;;;;;;;12.97;9.40;;;;;;;;;;4993690;28;20834;-53
2023/01/22 04:53:52;;;;;;;10.23;9.23;;;;;;;;;;4993886;28;20194;-53
2023/01/22 04:56:19;;;;;;;10.30;9.17;;;;;;;;;;4993673;28;20782;-53
2023/01/22 04:58:45;;;;;;;11.13;9.63;;;;;;;;;;4993924;28;20206;-53
2023/01/22 05:01:14;;;;;;;10.53;9.43;;;;;;;;;;4993626;28;20524;-53
2023/01/22 05:03:40;;;;;;;11.23;9.43;;;;;;;;;;4993806;28;20233;-52
2023/01/22 05:06:06;;;;;;;11.70;9.40;;;;;;;;;;4993713;28;20483;-53
2023/01/22 05:08:32;;;;;;;10.20;9.13;;;;;;;;;;4993411;28;20696;-53
2023/01/22 05:10:59;;;;;;;11.17;9.97;;;;;;;;;;4993749;28;20473;-53
2023/01/22 05:13:27;;;;;;;12.47;10.00;;;;;;;;;;4993359;28;20577;-53
2023/01/22 05:15:53;;;;;;;11.40;10.20;;;;;;;;;;4993405;28;20433;-53
2023/01/22 05:18:19;;;;;;;14.03;9.83;;;;;;;;;;4993245;28;20805;-53
2023/01/22 05:20:44;;;;;;;12.30;10.47;;;;;;;;;;4993536;28;20292;-53
2023/01/22 05:23:10;;;;;;;11.67;10.30;;;;;;;;;;4993318;28;20199;-53
2023/01/22 05:25:36;;;;;;;13.13;10.13;;;;;;;;;;4992737;28;20206;-53
2023/01/22 05:28:02;;;;;;;11.30;10.13;;;;;;;;;;4993102;28;20222;-53
2023/01/22 05:30:30;;;;;;;11.07;9.77;;;;;;;;;;4993079;28;20456;-54
2023/01/22 05:32:56;;;;;;;11.50;10.30;;;;;;;;;;4993050;28;20457;-53
2023/01/22 05:35:22;;;;;;;14.40;10.30;;;;;;;;;;4992986;28;20444;-53
2023/01/22 05:37:48;;;;;;;11.83;9.87;;;;;;;;;;4993125;28;20438;-53
2023/01/22 05:40:14;;;;;;;12.63;10.97;;;;;;;;;;4992670;28;20572;-53
2023/01/22 05:42:40;;;;;;;14.10;10.70;;;;;;;;;;4993131;28;20293;-53
2023/01/22 05:45:06;;;;;;;12.27;10.53;;;;;;;;;;4992873;28;20576;-53
2023/01/22 05:47:34;;;;;;;11.80;9.90;;;;;;;;;;4992633;28;20202;-53
2023/01/22 05:50:00;;;;;;;12.13;10.77;;;;;;;;;;4992907;28;20948;-53
2023/01/22 05:52:25;;;;;;;10.87;8.77;;;;;;;;;;4992792;28;20456;-53
2023/01/22 05:54:51;;;;;;;12.90;10.70;;;;;;;;;;4992727;28;20221;-53
2023/01/22 05:57:17;;;;;;;11.80;9.37;;;;;;;;;;4992599;28;20268;-52
2023/01/22 05:59:44;;;;;;;11.87;9.40;;;;;;;;;;4992774;28;20202;-52
2023/01/22 06:02:10;;;;;;;12.70;9.93;;;;;;;;;;4992621;28;20206;-52
2023/01/22 06:04:37;;;;;;;14.03;9.57;;;;;;;;;;4992677;28;20990;-53
2023/01/22 06:07:03;;;;;;;12.20;9.63;;;;;;;;;;4992504;28;20446;-58
2023/01/22 06:09:29;;;;;;;10.50;9.40;;;;;;;;;;4995157;28;20477;-54
2023/01/22 06:11:55;;;;;;;10.83;9.73;;;;;;;;;;5011205;28;20432;-54
2023/01/22 06:14:21;;;;;;;13.80;10.07;;;;;;;;;;5011694;28;20709;-54
2023/01/22 06:16:47;;;;;;;12.03;9.83;;;;;;;;;;5012153;28;20201;-55
2023/01/22 06:19:13;;;;;;;9.93;8.70;;;;;;;;;;5012214;28;20281;-54
2023/01/22 06:21:42;;;;;;;10.30;9.00;;;;;;;;;;5011635;28;20554;-54
2023/01/22 06:24:08;;;;;;;10.60;9.27;;;;;;;;;;5011955;28;20679;-53
2023/01/22 06:26:34;;;;;;;10.47;9.00;;;;;;;;;;5011747;28;20451;-53
2023/01/22 06:29:00;;;;;;;11.87;9.70;;;;;;;;;;5012023;28;20472;-53
2023/01/22 06:31:26;;;;;;;20.20;11.60;;;;;;;;;;5009929;28;20566;-54
2023/01/22 06:33:53;;;;;;;11.57;9.10;;;;;;;;;;5011834;28;20197;-54
2023/01/22 06:36:19;;;;;;;11.80;9.87;;;;;;;;;;5011387;28;20245;-54
2023/01/22 06:38:46;;;;;;;13.47;9.37;;;;;;;;;;5015494;28;20773;-54
2023/01/22 06:41:12;;;;;;;15.40;9.87;;;;;;;;;;5015245;28;20465;-54
2023/01/22 06:43:38;;;;;;;12.07;9.07;;;;;;;;;;5015343;28;20879;-54
2023/01/22 06:46:05;;;;;;;11.23;8.93;;;;;;;;;;5015348;28;20204;-53
2023/01/22 06:48:31;;;;;;;12.10;9.00;;;;;;;;;;5015046;28;20221;-54
2023/01/22 06:50:57;;;;;;;11.13;9.40;;;;;;;;;;5015106;28;20442;-53
2023/01/22 06:53:24;;;;;;;13.23;9.23;;;;;;;;;;5014965;28;20208;-53
2023/01/22 06:55:51;;;;;;;13.77;9.07;;;;;;;;;;5013382;28;21029;-53
2023/01/22 06:58:17;;;;;;;10.27;8.10;;;;;;;;;;5014748;28;20432;-54
2023/01/22 07:00:43;;;;;;;10.73;8.63;;;;;;;;;;5015328;28;20447;-53
2023/01/22 07:03:10;;;;;;;10.60;8.90;;;;;;;;;;5014964;28;20190;-53
2023/01/22 07:05:36;;;;;;;13.40;9.13;;;;;;;;;;5014757;28;20526;-54
2023/01/22 07:08:02;;;;;;;11.80;8.37;;;;;;;;;;5014684;28;20598;-54
2023/01/22 07:10:28;;;;;;;11.60;8.43;;;;;;;;;;5015111;28;20292;-54
2023/01/22 07:12:57;;;;;;;11.50;9.63;;;;;;;;;;5015065;28;20810;-54
2023/01/22 07:15:24;;;;;;;10.77;9.03;;;;;;;;;;5014336;28;20814;-54
2023/01/22 07:17:51;;;;;;;11.90;9.97;;;;;;;;;;5014982;28;20498;-54
2023/01/22 07:20:17;;;;;;;11.07;8.97;;;;;;;;;;5014977;28;20467;-54
2023/01/22 07:22:43;;;;;;;10.83;9.50;;;;;;;;;;5015105;28;20465;-54
2023/01/22 07:25:09;;;;;;;11.23;9.23;;;;;;;;;;5014686;28;20476;-54
2023/01/22 07:27:37;;;;;;;10.33;8.73;;;;;;;;;;5014679;28;20607;-54
2023/01/22 07:30:05;;;;;;;12.57;8.77;;;;;;;;;;5014746;28;20493;-54
2023/01/22 07:32:31;;;;;;;10.17;9.07;;;;;;;;;;5014721;28;20509;-53
2023/01/22 07:34:57;;;;;;;15.23;8.60;;;;;;;;;;5014710;28;20440;-53
2023/01/22 07:37:23;;;;;;;10.30;9.17;;;;;;;;;;5014716;28;20201;-55
2023/01/22 07:39:49;;;;;;;12.80;9.77;;;;;;;;;;5014197;28;20597;-54
2023/01/22 07:42:15;;;;;;;11.57;9.23;;;;;;;;;;5013973;28;20197;-54
2023/01/22 07:44:41;;;;;;;11.20;9.60;;;;;;;;;;5014034;28;20483;-54
2023/01/22 07:47:08;;;;;;;13.67;9.33;;;;;;;;;;5013964;28;20401;-54
2023/01/22 07:49:34;;;;;;;12.67;9.27;;;;;;;;;;5013463;28;20225;-54
2023/01/22 07:52:00;;;;;;;14.83;9.30;;;;;;;;;;5014494;28;20805;-54
2023/01/22 07:54:27;;;;;;;15.07;9.57;;;;;;;;;;5014283;28;20515;-55
2023/01/22 07:56:52;;;;;;;11.03;9.47;;;;;;;;;;5014322;28;20280;-54
2023/01/22 07:59:18;;;;;;;12.10;8.63;;;;;;;;;;5013897;28;20531;-53
2023/01/22 08:01:44;;;;;;;14.00;8.93;;;;;;;;;;5014183;28;20210;-54
2023/01/22 08:04:12;;;;;;;8.97;7.90;;;;;;;;;;5014264;28;20494;-55
2023/01/22 08:06:38;;;;;;;14.33;9.20;;;;;;;;;;5014216;28;20205;-54
2023/01/22 08:09:04;;;;;;;10.57;8.77;;;;;;;;;;5014009;28;20495;-53
2023/01/22 08:11:30;;;;;;;9.73;8.33;;;;;;;;;;5014175;28;20245;-53
2023/01/22 08:13:56;;;;;;;15.97;9.43;;;;;;;;;;5013906;28;20440;-53
2023/01/22 08:16:22;;;;;;;11.13;8.27;;;;;;;;;;5014069;28;20487;-54
2023/01/22 08:18:48;;;;;;;11.70;8.40;;;;;;;;;;5013958;28;20244;-54
2023/01/22 08:21:16;;;;;;;11.53;8.67;;;;;;;;;;5013897;28;20464;-54
2023/01/22 08:23:42;;;;;;;13.20;9.33;;;;;;;;;;5013734;28;20201;-57
2023/01/22 08:26:08;;;;;;;10.87;8.57;;;;;;;;;;5013730;28;20436;-55
2023/01/22 08:28:34;;;;;;;10.90;8.77;;;;;;;;;;5013652;28;20213;-54
2023/01/22 08:31:01;;;;;;;9.17;8.23;;;;;;;;;;5013675;28;20527;-55
2023/01/22 08:33:27;;;;;;;10.30;8.23;;;;;;;;;;5013742;28;20272;-53
2023/01/22 08:35:53;;;;;;;11.20;8.70;;;;;;;;;;5013697;28;20483;-53
2023/01/22 08:38:21;;;;;;;12.43;8.73;;;;;;;;;;5013334;28;20465;-54
2023/01/22 08:40:48;;;;;;;9.77;8.10;;;;;;;;;;5013257;28;20241;-55
2023/01/22 08:43:14;;;;;;;10.20;8.03;;;;;;;;;;5013345;28;20988;-54
2023/01/22 08:45:40;;;;;;;10.77;8.23;;;;;;;;;;5013741;28;20433;-54
2023/01/22 08:48:06;;;;;;;12.10;8.77;;;;;;;;;;5013338;28;20668;-54
2023/01/22 08:50:32;;;;;;;9.53;8.20;;;;;;;;;;5012922;28;20197;-54
2023/01/22 08:52:58;;;;;;;12.27;8.90;;;;;;;;;;5012891;28;20860;-54
2023/01/22 08:55:26;;;;;;;12.67;8.63;;;;;;;;;;5013021;28;20212;-54
2023/01/22 08:57:53;;;;;;;11.43;8.17;;;;;;;;;;5013062;28;20256;-55
2023/01/22 09:00:19;;;;;;;11.97;9.57;;;;;;;;;;5012412;28;20922;-55
2023/01/22 09:02:45;;;;;;;9.33;8.07;;;;;;;;;;5013017;28;20447;-55
2023/01/22 09:05:11;;;;;;;13.90;9.23;;;;;;;;;;5013182;28;20440;-54
2023/01/22 09:07:37;;;;;;;13.07;8.20;;;;;;;;;;5011069;28;20494;-53
2023/01/22 09:10:06;;;;;;;9.77;8.07;;;;;;;;;;5012717;28;20240;-54
2023/01/22 09:12:34;;;;;;;10.13;8.33;;;;;;;;;;5012731;28;20202;-55
2023/01/22 09:15:00;;;;;;;8.67;7.53;;;;;;;;;;5013032;28;20926;-53
2023/01/22 09:17:26;;;;;;;10.23;8.00;;;;;;;;;;5012801;28;20440;-54
2023/01/22 09:19:52;;;;;;;14.03;8.53;;;;;;;;;;5012775;28;20190;-54
2023/01/22 09:22:19;;;;;;;14.50;10.20;;;;;;;;;;5012574;28;20860;-54
2023/01/22 09:24:45;;;;;;;10.13;8.33;;;;;;;;;;5012966;28;20255;-63
2023/01/22 09:27:12;;;;;;;15.93;9.33;;;;;;;;;;5012872;28;20436;-56
2023/01/22 09:29:39;;;;;;;10.27;8.23;;;;;;;;;;5012310;28;20257;-55
2023/01/22 09:32:05;;;;;;;11.10;9.00;;;;;;;;;;5012745;28;20514;-54
2023/01/22 09:34:32;;;;;;;11.40;8.83;;;;;;;;;;5012287;28;20453;-54
2023/01/22 09:37:01;;;;;;;10.73;8.57;;;;;;;;;;5012549;28;20853;-54
2023/01/22 09:39:27;;;;;;;12.80;8.47;;;;;;;;;;5011315;28;20433;-53
2023/01/22 09:41:54;;;;;;;11.80;8.43;;;;;;;;;;5012295;28;21005;-54
2023/01/22 09:44:22;;;;;;;12.80;8.50;;;;;;;;;;5012210;28;20480;-54
2023/01/22 09:46:52;;;;;;;9.80;7.80;;;;;;;;;;5012575;28;20441;-54
2023/01/22 09:49:19;;;;;;;13.80;9.00;;;;;;;;;;5011947;28;20472;-54
2023/01/22 09:51:46;;;;;;;12.13;9.30;;;;;;;;;;5012512;28;20467;-55
2023/01/22 09:54:15;;;;;;;12.33;9.10;;;;;;;;;;5012049;28;20479;-54
2023/01/22 09:56:42;;;;;;;28.40;21.77;;;;;;;;;;5012212;28;20433;-54
2023/01/22 09:59:13;;;;;;;10.13;8.37;;;;;;;;;;5012123;28;20436;-54
2023/01/22 10:01:39;;;;;;;12.43;8.43;;;;;;;;;;5011912;28;20439;-54
2023/01/22 10:04:21;;;;;;;11.20;8.27;;;;;;;;;;5011940;28;21281;-54
2023/01/22 10:06:48;;;;;;;10.63;7.70;;;;;;;;;;5012175;28;20516;-54
2023/01/22 10:09:17;;;;;;;9.07;7.67;;;;;;;;;;5011899;28;20484;-54
2023/01/22 10:11:45;;;;;;;14.67;8.60;;;;;;;;;;5011707;28;20448;-54
2023/01/22 10:14:14;;;;;;;8.90;7.80;;;;;;;;;;5012120;28;20441;-53
2023/01/22 10:16:40;;;;;;;12.27;8.73;;;;;;;;;;5012002;28;20475;-54
2023/01/22 10:19:13;;;;;;;11.77;8.50;;;;;;;;;;5012002;28;20457;-54
2023/01/22 10:21:41;;;;;;;13.63;8.33;;;;;;;;;;5011897;28;20212;-54
2023/01/22 10:24:09;;;;;;;13.23;8.60;;;;;;;;;;5011872;28;20452;-54
2023/01/22 10:26:36;;;;;;;10.17;8.03;;;;;;;;;;5011657;28;20436;-54
2023/01/22 10:29:04;;;;;;;13.03;8.30;;;;;;;;;;5011543;28;20484;-53
2023/01/22 10:31:32;;;;;;;10.20;7.57;;;;;;;;;;5011662;28;20867;-54
2023/01/22 10:33:59;;;;;;;10.37;8.30;;;;;;;;;;5011699;28;20843;-54
2023/01/22 10:36:27;;;;;;;13.70;8.43;;;;;;;;;;5011279;28;20440;-53
2023/01/22 10:39:01;;;;;;;11.50;7.57;;;;;;;;;;5011629;28;20452;-54
2023/01/22 10:41:29;;;;;;;10.20;8.50;;;;;;;;;;5011622;28;20463;-54
2023/01/22 10:43:55;;;;;;;11.27;8.47;;;;;;;;;;5011564;28;20985;-54
2023/01/22 10:46:23;;;;;;;10.70;7.77;;;;;;;;;;5011498;28;20424;-53
2023/01/22 10:48:58;;;;;;;10.70;8.23;;;;;;;;;;5011670;28;20252;-53
2023/01/22 10:51:27;;;;;;;10.70;7.80;;;;;;;;;;5011899;28;20440;-54
2023/01/22 10:53:56;;;;;;;23.83;18.80;;;;;;;;;;5011704;28;20456;-53
2023/01/22 10:56:27;;;;;;;13.10;10.20;;;;;;;;;;5011503;28;20444;-54
2023/01/22 10:58:53;;;;;;;10.40;8.13;;;;;;;;;;5011554;28;20433;-54
2023/01/22 11:01:25;;;;;;;11.17;8.33;;;;;;;;;;5011351;28;20441;-55
2023/01/22 11:03:51;;;;;;;12.17;8.07;;;;;;;;;;5011478;28;21248;-54
2023/01/22 11:06:19;;;;;;;11.50;7.93;;;;;;;;;;5011446;28;21011;-55
2023/01/22 11:08:50;;;;;;;11.27;7.90;;;;;;;;;;5011426;28;20490;-54
2023/01/22 11:11:21;;;;;;;10.63;7.43;;;;;;;;;;5010694;28;20441;-53
2023/01/22 11:13:52;;;;;;;11.40;8.07;;;;;;;;;;5011300;28;20953;-54
2023/01/22 11:16:19;;;;;;;10.33;7.23;;;;;;;;;;5011343;28;20444;-55
2023/01/22 11:18:48;;;;;;;8.87;6.97;;;;;;;;;;5011537;28;20460;-53
2023/01/22 11:21:15;;;;;;;7.77;6.60;;;;;;;;;;5010966;28;20523;-54
2023/01/22 11:23:45;;;;;;;13.00;7.57;;;;;;;;;;5011275;28;20444;-54
2023/01/22 11:26:16;;;;;;;10.23;7.53;;;;;;;;;;5014916;28;20437;-54
2023/01/22 11:28:47;;;;;;;10.83;7.67;;;;;;;;;;5014844;28;20488;-54
2023/01/22 11:31:26;;;;;;;10.47;7.10;;;;;;;;;;5014857;28;20941;-54
2023/01/22 11:34:04;;;;;;;9.87;7.67;;;;;;;;;;5014794;28;20444;-53
2023/01/22 11:36:32;;;;;;;10.40;7.47;;;;;;;;;;5014503;28;20440;-54
2023/01/22 11:39:01;;;;;;;10.57;9.03;;;;;;;;;;5014601;28;20492;-53
2023/01/22 11:41:44;;;;;;;9.90;8.33;;;;;;;;;;5014550;28;20467;-54
2023/01/22 11:44:18;;;;;;;10.00;8.20;;;;;;;;;;5014383;28;20488;-54
2023/01/22 11:46:53;;;;;;;11.67;8.77;;;;;;;;;;5014438;28;20501;-53
2023/01/22 11:49:24;;;;;;;8.60;7.07;;;;;;;;;;5014438;28;20480;-53
2023/01/22 11:51:56;;;;;;;10.97;7.93;;;;;;;;;;5014405;28;20448;-53
2023/01/22 11:54:27;;;;;;;14.37;8.00;;;;;;;;;;5014377;28;20439;-53
2023/01/22 11:56:59;;;;;;;10.83;7.87;;;;;;;;;;5014477;28;20520;-53
2023/01/22 11:59:33;;;;;;;9.60;7.50;;;;;;;;;;5014386;28;20442;-53
2023/01/22 12:02:05;;;;;;;11.13;8.23;;;;;;;;;;5014358;28;20453;-53
2023/01/22 12:04:37;;;;;;;20.33;13.17;;;;;;;;;;5014335;28;20490;-54
2023/01/22 12:07:15;;;;;;;12.13;9.27;;;;;;;;;;5014329;28;20444;-54
2023/01/22 12:09:44;;;;;;;8.27;7.23;;;;;;;;;;5014011;28;20546;-53
2023/01/22 12:12:16;;;;;;;11.00;7.17;;;;;;;;;;5014223;28;20441;-53
2023/01/22 12:14:50;;;;;;;10.80;6.83;;;;;;;;;;5014221;28;20432;-54
2023/01/22 12:17:20;;;;;;;34.73;29.87;;;;;;;;;;5014122;28;20474;-53
2023/01/22 12:20:02;;;;;;;11.87;7.93;;;;;;;;;;5014161;28;20436;-53
2023/01/22 12:22:31;;;;;;;8.93;7.40;;;;;;;;;;5009971;28;20472;-53
2023/01/22 12:25:00;;;;;;;9.33;7.03;;;;;;;;;;5013638;28;20440;-53
2023/01/22 12:27:28;;;;;;;9.67;6.93;;;;;;;;;;5013125;28;20968;-53
2023/01/22 12:29:59;;;;;;;10.97;7.53;;;;;;;;;;5013610;28;20488;-53
2023/01/22 12:32:28;;;;;;;9.17;6.90;;;;;;;;;;5013874;28;20484;-52
2023/01/22 12:34:57;;;;;;;51.30;37.70;;;;;;;;;;5013618;28;20535;-54
2023/01/22 12:37:24;;;;;;;105.13;75.03;;;;;;;;;;5013673;28;20491;-53
2023/01/22 12:39:57;;;;;;;465.97;305.43;;;;;;;;;;5011735;28;20473;-53
2023/01/22 12:42:27;;;;;;;51.00;38.13;;;;;;;;;;5013772;28;20443;-53
2023/01/22 12:44:59;;;;;;;23.87;21.53;;;;;;;;;;5013449;28;21002;-54
2023/01/22 12:47:28;;;;;;;22.53;20.23;;;;;;;;;;5013647;28;20568;-53
2023/01/22 12:49:54;;;;;;;16.00;13.93;;;;;;;;;;5013586;28;20504;-53
2023/01/22 12:52:27;;;;;;;12.87;10.63;;;;;;;;;;5013491;28;20432;-54
2023/01/22 12:54:54;;;;;;;18.07;13.03;;;;;;;;;;5013541;28;20443;-58
2023/01/22 12:57:22;;;;;;;23.53;19.83;;;;;;;;;;5013379;28;20540;-54
2023/01/22 12:59:49;;;;;;;37.90;29.90;;;;;;;;;;5013369;28;20437;-54
2023/01/22 13:02:34;;;;;;;16.97;13.57;;;;;;;;;;5013285;28;20435;-54
2023/01/22 13:05:09;;;;;;;15.63;12.40;;;;;;;;;;5013526;28;20486;-53
2023/01/22 13:07:36;;;;;;;12.63;11.30;;;;;;;;;;5013261;28;20432;-53
2023/01/22 13:10:03;;;;;;;19.13;16.20;;;;;;;;;;5013024;28;20510;-53
2023/01/22 13:12:44;;;;;;;13.03;10.17;;;;;;;;;;5013071;28;20491;-53
2023/01/22 13:15:14;;;;;;;12.53;9.67;;;;;;;;;;5013026;28;21016;-53
2023/01/22 13:17:42;;;;;;;11.73;8.50;;;;;;;;;;5012985;28;20449;-53
2023/01/22 13:20:14;;;;;;;12.50;8.53;;;;;;;;;;5012933;28;20528;-53
2023/01/22 13:22:41;;;;;;;10.70;9.47;;;;;;;;;;5012737;28;20444;-53
2023/01/22 13:25:21;;;;;;;10.33;9.17;;;;;;;;;;5012858;28;20503;-52
2023/01/22 13:27:47;;;;;;;10.03;8.80;;;;;;;;;;5012884;28;20527;-53
2023/01/22 13:30:15;;;;;;;10.83;8.87;;;;;;;;;;5013024;28;20560;-52
2023/01/22 13:32:42;;;;;;;11.87;8.57;;;;;;;;;;5010928;28;20205;-53
2023/01/22 13:35:11;;;;;;;9.37;8.37;;;;;;;;;;5012326;28;20444;-53
2023/01/22 13:37:40;;;;;;;10.73;7.83;;;;;;;;;;5012111;28;20487;-54
2023/01/22 13:40:13;;;;;;;11.03;7.60;;;;;;;;;;5010450;28;20452;-53
2023/01/22 13:42:42;;;;;;;7.57;6.77;;;;;;;;;;5012031;28;20428;-53
2023/01/22 13:45:15;;;;;;;27.97;20.97;;;;;;;;;;5012057;28;20488;-54
2023/01/22 13:47:42;;;;;;;11.33;8.87;;;;;;;;;;5009002;28;20437;-53
2023/01/22 13:50:17;;;;;;;9.30;6.50;;;;;;;;;;5010354;28;20480;-54
2023/01/22 13:52:43;;;;;;;9.13;7.30;;;;;;;;;;5010445;28;20976;-54
2023/01/22 13:55:12;;;;;;;8.37;7.50;;;;;;;;;;5010618;28;20782;-53
2023/01/22 13:57:43;;;;;;;9.07;8.07;;;;;;;;;;5010726;28;20519;-53
2023/01/22 14:00:21;;;;;;;12.40;8.07;;;;;;;;;;5010814;28;20460;-54
2023/01/22 14:02:48;;;;;;;9.77;7.90;;;;;;;;;;5010686;28;20808;-53
2023/01/22 14:05:18;;;;;;;9.70;8.27;;;;;;;;;;5011804;28;20440;-53
2023/01/22 14:07:44;;;;;;;7.57;6.50;;;;;;;;;;5011753;28;20441;-52
2023/01/22 14:10:11;;;;;;;9.23;7.33;;;;;;;;;;5011670;28;21136;-52
2023/01/22 14:12:37;;;;;;;9.00;8.10;;;;;;;;;;5011529;28;20447;-54
2023/01/22 14:15:13;;;;;;;9.60;7.10;;;;;;;;;;5011639;28;20441;-54
2023/01/22 14:17:39;;;;;;;11.70;10.47;;;;;;;;;;5011698;28;20647;-54
2023/01/22 14:20:07;;;;;;;12.73;11.43;;;;;;;;;;5011687;28;20437;-53
2023/01/22 14:22:33;;;;;;;9.80;7.90;;;;;;;;;;5011554;28;20531;-53
2023/01/22 14:24:59;;;;;;;8.90;6.93;;;;;;;;;;5012071;28;20536;-53
2023/01/22 14:27:26;;;;;;;11.33;6.80;;;;;;;;;;5011843;28;20197;-54
2023/01/22 14:29:52;;;;;;;33.53;25.53;;;;;;;;;;5011752;28;20230;-53
2023/01/22 14:32:18;;;;;;;19.70;16.40;;;;;;;;;;5011712;28;20456;-53
2023/01/22 14:34:45;;;;;;;11.77;9.60;;;;;;;;;;5011936;28;20433;-52
2023/01/22 14:37:15;;;;;;;11.67;9.53;;;;;;;;;;5011732;28;20436;-52
2023/01/22 14:39:41;;;;;;;12.27;9.60;;;;;;;;;;5011762;28;20444;-53
2023/01/22 14:42:07;;;;;;;18.83;13.53;;;;;;;;;;5011445;28;20456;-55
2023/01/22 14:44:33;;;;;;;19.90;15.80;;;;;;;;;;5011150;28;20780;-53